sensor_id;sensor_type;location;lat;lon;timestamp;noise_LAeq;noise_LA_min;noise_LA_max;noise_LA01;noise_LA95
79200;Laerm;68628;48.714;9.472;2023-09-18T00:00:47;52.31;50.25;54.81;;
79200;Laerm;68628;48.714;9.472;2023-09-18T00:03:14;52.00;49.96;54.36;;
79200;Laerm;68628;48.714;9.472;2023-09-18T00:05:40;51.89;49.90;54.24;;
79200;Laerm;68628;48.714;9.472;2023-09-18T00:08:05;50.43;49.61;51.35;;
79200;Laerm;68628;48.714;9.472;2023-09-18T00:10:30;50.50;49.80;51.19;;
79200;Laerm;68628;48.714;9.472;2023-09-18T00:12:57;50.61;49.96;51.58;;
79200;Laerm;68628;48.714;9.472;2023-09-18T00:15:23;50.58;49.95;51.71;;
79200;Laerm;68628;48.714;9.472;2023-09-18T00:17:49;51.31;49.77;53.59;;
79200;Laerm;68628;48.714;9.472;2023-09-18T00:20:14;50.62;49.84;51.40;;
79200;Laerm;68628;48.714;9.472;2023-09-18T00:22:42;50.66;49.94;51.83;;
79200;Laerm;68628;48.714;9.472;2023-09-18T00:25:08;50.53;49.88;51.48;;
79200;Laerm;68628;48.714;9.472;2023-09-18T00:27:33;50.45;49.75;51.60;;
79200;Laerm;68628;48.714;9.472;2023-09-18T00:30:04;50.48;49.84;51.11;;
79200;Laerm;68628;48.714;9.472;2023-09-18T00:32:30;50.51;49.83;53.73;;
79200;Laerm;68628;48.714;9.472;2023-09-18T00:34:56;50.67;49.62;53.15;;
79200;Laerm;68628;48.714;9.472;2023-09-18T00:37:21;50.62;49.99;52.50;;
79200;Laerm;68628;48.714;9.472;2023-09-18T00:39:50;50.44;49.82;51.43;;
79200;Laerm;68628;48.714;9.472;2023-09-18T00:42:15;50.68;49.88;51.95;;
79200;Laerm;68628;48.714;9.472;2023-09-18T00:44:43;50.49;49.81;51.03;;
79200;Laerm;68628;48.714;9.472;2023-09-18T00:47:15;50.68;49.95;51.41;;
79200;Laerm;68628;48.714;9.472;2023-09-18T00:49:47;50.74;50.10;52.17;;
79200;Laerm;68628;48.714;9.472;2023-09-18T00:52:15;50.89;50.20;52.16;;
79200;Laerm;68628;48.714;9.472;2023-09-18T00:54:42;51.36;50.14;53.99;;
79200;Laerm;68628;48.714;9.472;2023-09-18T00:57:10;51.28;49.90;54.49;;
79200;Laerm;68628;48.714;9.472;2023-09-18T00:59:39;51.58;50.24;55.31;;
79200;Laerm;68628;48.714;9.472;2023-09-18T01:02:08;51.64;50.46;54.51;;
79200;Laerm;68628;48.714;9.472;2023-09-18T01:04:39;50.94;49.96;52.38;;
79200;Laerm;68628;48.714;9.472;2023-09-18T01:07:09;51.34;50.06;53.18;;
79200;Laerm;68628;48.714;9.472;2023-09-18T01:09:35;52.07;50.36;54.37;;
79200;Laerm;68628;48.714;9.472;2023-09-18T01:12:53;51.35;50.15;52.73;;
79200;Laerm;68628;48.714;9.472;2023-09-18T01:17:35;50.83;50.06;51.75;;
79200;Laerm;68628;48.714;9.472;2023-09-18T01:20:02;50.72;49.94;53.82;;
79200;Laerm;68628;48.714;9.472;2023-09-18T01:22:30;50.58;49.96;52.35;;
79200;Laerm;68628;48.714;9.472;2023-09-18T01:24:55;50.58;49.87;52.51;;
79200;Laerm;68628;48.714;9.472;2023-09-18T01:27:23;50.47;49.86;51.04;;
79200;Laerm;68628;48.714;9.472;2023-09-18T01:29:52;50.47;49.76;54.76;;
79200;Laerm;68628;48.714;9.472;2023-09-18T01:32:24;50.66;49.93;51.77;;
79200;Laerm;68628;48.714;9.472;2023-09-18T01:34:56;50.81;50.01;52.70;;
79200;Laerm;68628;48.714;9.472;2023-09-18T01:37:27;50.86;50.13;51.73;;
79200;Laerm;68628;48.714;9.472;2023-09-18T01:39:55;50.91;50.12;55.31;;
79200;Laerm;68628;48.714;9.472;2023-09-18T01:42:23;50.90;50.09;54.27;;
79200;Laerm;68628;48.714;9.472;2023-09-18T01:44:48;50.70;49.96;53.47;;
79200;Laerm;68628;48.714;9.472;2023-09-18T01:47:17;50.62;49.90;51.81;;
79200;Laerm;68628;48.714;9.472;2023-09-18T01:49:46;50.57;49.99;52.14;;
79200;Laerm;68628;48.714;9.472;2023-09-18T01:52:14;50.59;49.90;52.06;;
79200;Laerm;68628;48.714;9.472;2023-09-18T01:54:47;50.50;49.95;52.10;;
79200;Laerm;68628;48.714;9.472;2023-09-18T01:57:13;50.58;49.96;53.58;;
79200;Laerm;68628;48.714;9.472;2023-09-18T01:59:45;50.50;49.96;54.83;;
79200;Laerm;68628;48.714;9.472;2023-09-18T02:02:10;50.55;49.99;53.23;;
79200;Laerm;68628;48.714;9.472;2023-09-18T02:04:37;50.58;49.95;52.37;;
79200;Laerm;68628;48.714;9.472;2023-09-18T02:07:06;51.13;50.02;53.35;;
79200;Laerm;68628;48.714;9.472;2023-09-18T02:09:31;50.92;49.99;52.60;;
79200;Laerm;68628;48.714;9.472;2023-09-18T02:11:57;50.83;50.17;51.65;;
79200;Laerm;68628;48.714;9.472;2023-09-18T02:14:28;51.48;50.35;52.52;;
79200;Laerm;68628;48.714;9.472;2023-09-18T02:17:04;51.04;50.04;52.61;;
79200;Laerm;68628;48.714;9.472;2023-09-18T02:19:30;52.71;50.08;57.52;;
79200;Laerm;68628;48.714;9.472;2023-09-18T02:21:56;53.33;50.27;55.96;;
79200;Laerm;68628;48.714;9.472;2023-09-18T02:24:22;51.98;49.94;55.77;;
79200;Laerm;68628;48.714;9.472;2023-09-18T02:26:48;51.16;49.88;53.49;;
79200;Laerm;68628;48.714;9.472;2023-09-18T02:29:14;51.36;50.15;53.82;;
79200;Laerm;68628;48.714;9.472;2023-09-18T02:31:40;51.49;50.02;54.18;;
79200;Laerm;68628;48.714;9.472;2023-09-18T02:34:05;50.65;49.97;51.54;;
79200;Laerm;68628;48.714;9.472;2023-09-18T02:36:32;50.84;49.89;53.22;;
79200;Laerm;68628;48.714;9.472;2023-09-18T02:38:58;51.29;50.14;53.59;;
79200;Laerm;68628;48.714;9.472;2023-09-18T02:41:23;51.36;50.13;53.81;;
79200;Laerm;68628;48.714;9.472;2023-09-18T02:43:49;51.05;49.84;53.36;;
79200;Laerm;68628;48.714;9.472;2023-09-18T02:46:14;50.59;49.79;52.70;;
79200;Laerm;68628;48.714;9.472;2023-09-18T02:48:40;50.74;49.82;52.09;;
79200;Laerm;68628;48.714;9.472;2023-09-18T02:51:16;50.52;49.76;52.73;;
79200;Laerm;68628;48.714;9.472;2023-09-18T02:53:42;50.50;49.81;51.28;;
79200;Laerm;68628;48.714;9.472;2023-09-18T02:56:10;50.51;49.91;51.39;;
79200;Laerm;68628;48.714;9.472;2023-09-18T02:58:36;50.52;49.86;51.25;;
79200;Laerm;68628;48.714;9.472;2023-09-18T03:01:02;50.63;50.00;52.24;;
79200;Laerm;68628;48.714;9.472;2023-09-18T03:03:29;50.76;50.07;52.75;;
79200;Laerm;68628;48.714;9.472;2023-09-18T03:06:03;50.88;50.01;53.31;;
79200;Laerm;68628;48.714;9.472;2023-09-18T03:08:41;50.60;50.00;51.50;;
79200;Laerm;68628;48.714;9.472;2023-09-18T03:11:13;50.83;50.11;51.87;;
79200;Laerm;68628;48.714;9.472;2023-09-18T03:13:47;50.98;50.04;52.24;;
79200;Laerm;68628;48.714;9.472;2023-09-18T03:16:15;51.05;50.25;52.71;;
79200;Laerm;68628;48.714;9.472;2023-09-18T03:18:45;50.90;50.00;51.68;;
79200;Laerm;68628;48.714;9.472;2023-09-18T03:21:16;50.97;50.02;51.83;;
79200;Laerm;68628;48.714;9.472;2023-09-18T03:23:48;50.74;50.16;51.54;;
79200;Laerm;68628;48.714;9.472;2023-09-18T03:26:16;50.66;50.02;51.79;;
79200;Laerm;68628;48.714;9.472;2023-09-18T03:28:46;50.97;49.99;51.94;;
79200;Laerm;68628;48.714;9.472;2023-09-18T03:31:15;51.22;50.36;52.07;;
79200;Laerm;68628;48.714;9.472;2023-09-18T03:33:43;50.93;49.94;52.07;;
79200;Laerm;68628;48.714;9.472;2023-09-18T03:36:23;50.62;49.99;51.35;;
79200;Laerm;68628;48.714;9.472;2023-09-18T03:39:00;50.63;49.97;51.94;;
79200;Laerm;68628;48.714;9.472;2023-09-18T03:41:45;50.64;49.95;51.46;;
79200;Laerm;68628;48.714;9.472;2023-09-18T03:44:16;50.55;49.98;52.04;;
79200;Laerm;68628;48.714;9.472;2023-09-18T03:46:49;50.64;49.91;52.81;;
79200;Laerm;68628;48.714;9.472;2023-09-18T03:49:18;50.63;49.97;53.08;;
79200;Laerm;68628;48.714;9.472;2023-09-18T03:51:47;50.59;50.02;53.35;;
79200;Laerm;68628;48.714;9.472;2023-09-18T03:54:19;50.65;49.63;52.34;;
79200;Laerm;68628;48.714;9.472;2023-09-18T03:56:52;50.66;49.89;51.66;;
79200;Laerm;68628;48.714;9.472;2023-09-18T03:59:45;50.63;49.90;52.14;;
79200;Laerm;68628;48.714;9.472;2023-09-18T04:02:13;50.85;49.93;55.60;;
79200;Laerm;68628;48.714;9.472;2023-09-18T04:04:44;50.66;49.86;52.93;;
79200;Laerm;68628;48.714;9.472;2023-09-18T04:07:18;50.52;49.92;51.25;;
79200;Laerm;68628;48.714;9.472;2023-09-18T04:09:50;50.55;49.87;52.63;;
79200;Laerm;68628;48.714;9.472;2023-09-18T04:12:28;50.53;49.87;51.32;;
79200;Laerm;68628;48.714;9.472;2023-09-18T04:15:00;50.45;49.79;51.36;;
79200;Laerm;68628;48.714;9.472;2023-09-18T04:17:55;50.70;49.94;52.70;;
79200;Laerm;68628;48.714;9.472;2023-09-18T04:20:31;50.68;49.96;51.55;;
79200;Laerm;68628;48.714;9.472;2023-09-18T04:23:18;50.80;50.05;51.76;;
79200;Laerm;68628;48.714;9.472;2023-09-18T04:25:45;50.70;49.95;51.76;;
79200;Laerm;68628;48.714;9.472;2023-09-18T04:28:27;50.66;49.87;53.72;;
79200;Laerm;68628;48.714;9.472;2023-09-18T04:30:58;50.69;49.85;52.99;;
79200;Laerm;68628;48.714;9.472;2023-09-18T04:33:36;50.74;49.91;52.84;;
79200;Laerm;68628;48.714;9.472;2023-09-18T04:36:02;50.87;50.09;52.04;;
79200;Laerm;68628;48.714;9.472;2023-09-18T04:38:29;50.76;49.94;51.66;;
79200;Laerm;68628;48.714;9.472;2023-09-18T04:40:59;50.73;50.07;51.67;;
79200;Laerm;68628;48.714;9.472;2023-09-18T04:43:38;50.64;49.88;51.61;;
79200;Laerm;68628;48.714;9.472;2023-09-18T04:46:17;50.91;49.82;53.55;;
79200;Laerm;68628;48.714;9.472;2023-09-18T04:48:50;50.63;49.94;51.75;;
79200;Laerm;68628;48.714;9.472;2023-09-18T04:51:22;50.45;49.75;51.34;;
79200;Laerm;68628;48.714;9.472;2023-09-18T04:53:49;50.66;49.93;51.58;;
79200;Laerm;68628;48.714;9.472;2023-09-18T04:56:22;50.91;49.97;53.90;;
79200;Laerm;68628;48.714;9.472;2023-09-18T04:58:53;50.58;49.87;51.92;;
79200;Laerm;68628;48.714;9.472;2023-09-18T05:01:19;50.98;50.00;52.88;;
79200;Laerm;68628;48.714;9.472;2023-09-18T05:03:55;50.99;50.06;51.99;;
79200;Laerm;68628;48.714;9.472;2023-09-18T05:06:27;50.95;50.09;52.50;;
79200;Laerm;68628;48.714;9.472;2023-09-18T05:11:48;50.99;50.18;53.53;;
79200;Laerm;68628;48.714;9.472;2023-09-18T05:14:42;50.93;49.91;53.01;;
79200;Laerm;68628;48.714;9.472;2023-09-18T05:17:17;50.46;49.66;51.24;;
79200;Laerm;68628;48.714;9.472;2023-09-18T05:19:54;50.63;49.77;53.78;;
79200;Laerm;68628;48.714;9.472;2023-09-18T05:22:31;50.55;49.94;51.73;;
79200;Laerm;68628;48.714;9.472;2023-09-18T05:25:02;50.75;49.95;52.28;;
79200;Laerm;68628;48.714;9.472;2023-09-18T05:27:35;50.95;50.06;52.57;;
79200;Laerm;68628;48.714;9.472;2023-09-18T05:30:12;52.10;49.96;57.33;;
79200;Laerm;68628;48.714;9.472;2023-09-18T05:32:55;50.59;49.75;52.39;;
79200;Laerm;68628;48.714;9.472;2023-09-18T05:35:43;50.36;49.83;51.52;;
79200;Laerm;68628;48.714;9.472;2023-09-18T05:38:15;50.55;49.88;52.52;;
79200;Laerm;68628;48.714;9.472;2023-09-18T05:40:52;50.59;49.81;53.12;;
79200;Laerm;68628;48.714;9.472;2023-09-18T05:43:31;50.78;49.88;55.51;;
79200;Laerm;68628;48.714;9.472;2023-09-18T05:45:57;50.62;49.92;52.15;;
79200;Laerm;68628;48.714;9.472;2023-09-18T05:48:42;50.64;49.76;56.74;;
79200;Laerm;68628;48.714;9.472;2023-09-18T05:51:30;50.39;49.73;51.55;;
79200;Laerm;68628;48.714;9.472;2023-09-18T05:54:14;50.60;49.88;51.43;;
79200;Laerm;68628;48.714;9.472;2023-09-18T05:56:49;50.92;49.78;55.12;;
79200;Laerm;68628;48.714;9.472;2023-09-18T05:59:28;51.05;49.81;56.57;;
79200;Laerm;68628;48.714;9.472;2023-09-18T06:01:56;52.32;50.26;56.31;;
79200;Laerm;68628;48.714;9.472;2023-09-18T06:04:22;54.06;51.35;56.37;;
79200;Laerm;68628;48.714;9.472;2023-09-18T06:06:56;54.55;50.84;55.88;;
79200;Laerm;68628;48.714;9.472;2023-09-18T06:09:22;53.75;51.72;58.07;;
79200;Laerm;68628;48.714;9.472;2023-09-18T06:11:47;53.48;51.83;55.56;;
79200;Laerm;68628;48.714;9.472;2023-09-18T06:14:13;53.86;51.55;55.54;;
79200;Laerm;68628;48.714;9.472;2023-09-18T06:16:39;53.56;51.33;55.65;;
79200;Laerm;68628;48.714;9.472;2023-09-18T06:19:04;53.34;51.43;55.35;;
79200;Laerm;68628;48.714;9.472;2023-09-18T06:21:30;54.11;52.11;55.96;;
79200;Laerm;68628;48.714;9.472;2023-09-18T06:26:30;53.48;50.83;59.38;;
79200;Laerm;68628;48.714;9.472;2023-09-18T06:28:56;52.30;50.45;55.00;;
79200;Laerm;68628;48.714;9.472;2023-09-18T06:31:21;52.07;50.06;54.79;;
79200;Laerm;68628;48.714;9.472;2023-09-18T06:33:48;52.25;50.38;53.60;;
79200;Laerm;68628;48.714;9.472;2023-09-18T06:36:14;53.05;50.28;55.05;;
79200;Laerm;68628;48.714;9.472;2023-09-18T06:38:39;53.31;50.50;55.42;;
79200;Laerm;68628;48.714;9.472;2023-09-18T06:41:05;51.72;49.98;54.26;;
79200;Laerm;68628;48.714;9.472;2023-09-18T06:43:30;51.04;49.92;52.81;;
79200;Laerm;68628;48.714;9.472;2023-09-18T06:45:55;51.51;50.22;52.66;;
79200;Laerm;68628;48.714;9.472;2023-09-18T06:48:24;50.96;49.93;53.77;;
79200;Laerm;68628;48.714;9.472;2023-09-18T06:50:49;52.50;51.15;55.64;;
79200;Laerm;68628;48.714;9.472;2023-09-18T06:53:14;51.91;49.94;54.60;;
79200;Laerm;68628;48.714;9.472;2023-09-18T06:55:40;50.91;49.92;53.60;;
79200;Laerm;68628;48.714;9.472;2023-09-18T06:58:05;52.80;50.80;56.04;;
79200;Laerm;68628;48.714;9.472;2023-09-18T07:00:31;52.59;50.30;55.22;;
79200;Laerm;68628;48.714;9.472;2023-09-18T07:02:56;51.17;50.03;54.01;;
79200;Laerm;68628;48.714;9.472;2023-09-18T07:05:22;52.61;50.17;57.84;;
79200;Laerm;68628;48.714;9.472;2023-09-18T07:07:48;51.51;50.56;52.92;;
79200;Laerm;68628;48.714;9.472;2023-09-18T07:10:13;51.21;50.09;57.90;;
79200;Laerm;68628;48.714;9.472;2023-09-18T07:12:38;51.34;49.97;52.78;;
79200;Laerm;68628;48.714;9.472;2023-09-18T07:15:05;51.25;50.06;52.39;;
79200;Laerm;68628;48.714;9.472;2023-09-18T07:17:32;52.42;50.30;57.16;;
79200;Laerm;68628;48.714;9.472;2023-09-18T07:19:57;54.15;50.07;58.25;;
79200;Laerm;68628;48.714;9.472;2023-09-18T07:22:23;51.42;49.99;55.36;;
79200;Laerm;68628;48.714;9.472;2023-09-18T07:24:48;50.91;49.91;54.01;;
79200;Laerm;68628;48.714;9.472;2023-09-18T07:27:14;50.72;49.93;53.05;;
79200;Laerm;68628;48.714;9.472;2023-09-18T07:29:40;50.82;49.89;52.09;;
79200;Laerm;68628;48.714;9.472;2023-09-18T07:32:05;50.62;49.93;53.50;;
79200;Laerm;68628;48.714;9.472;2023-09-18T07:34:30;50.78;50.04;53.22;;
79200;Laerm;68628;48.714;9.472;2023-09-18T07:36:56;50.68;49.83;54.49;;
79200;Laerm;68628;48.714;9.472;2023-09-18T07:39:22;52.57;50.07;60.06;;
79200;Laerm;68628;48.714;9.472;2023-09-18T07:41:47;52.55;50.67;55.40;;
79200;Laerm;68628;48.714;9.472;2023-09-18T07:44:19;52.06;49.77;59.87;;
79200;Laerm;68628;48.714;9.472;2023-09-18T07:46:46;50.70;49.87;53.49;;
79200;Laerm;68628;48.714;9.472;2023-09-18T07:49:11;51.13;50.11;55.79;;
79200;Laerm;68628;48.714;9.472;2023-09-18T07:51:37;51.99;50.34;54.43;;
79200;Laerm;68628;48.714;9.472;2023-09-18T07:54:03;52.66;50.83;54.66;;
79200;Laerm;68628;48.714;9.472;2023-09-18T07:56:28;52.01;50.61;54.51;;
79200;Laerm;68628;48.714;9.472;2023-09-18T07:58:56;52.01;50.58;55.81;;
79200;Laerm;68628;48.714;9.472;2023-09-18T08:01:21;51.88;49.94;54.04;;
79200;Laerm;68628;48.714;9.472;2023-09-18T08:03:48;51.24;49.72;53.54;;
79200;Laerm;68628;48.714;9.472;2023-09-18T08:06:14;51.69;50.32;53.05;;
79200;Laerm;68628;48.714;9.472;2023-09-18T08:08:43;51.33;50.04;53.43;;
79200;Laerm;68628;48.714;9.472;2023-09-18T08:11:09;51.71;50.05;58.21;;
79200;Laerm;68628;48.714;9.472;2023-09-18T08:13:35;53.88;50.09;57.46;;
79200;Laerm;68628;48.714;9.472;2023-09-18T08:16:01;52.36;50.02;61.35;;
79200;Laerm;68628;48.714;9.472;2023-09-18T08:18:26;51.37;49.62;55.79;;
79200;Laerm;68628;48.714;9.472;2023-09-18T08:20:52;54.09;50.15;60.54;;
79200;Laerm;68628;48.714;9.472;2023-09-18T08:23:19;52.74;50.04;60.23;;
79200;Laerm;68628;48.714;9.472;2023-09-18T08:25:45;53.04;50.32;60.32;;
79200;Laerm;68628;48.714;9.472;2023-09-18T08:28:12;52.28;50.18;54.53;;
79200;Laerm;68628;48.714;9.472;2023-09-18T08:30:39;53.24;49.83;63.56;;
79200;Laerm;68628;48.714;9.472;2023-09-18T08:33:05;53.68;49.76;63.96;;
79200;Laerm;68628;48.714;9.472;2023-09-18T08:35:31;51.22;49.78;61.90;;
79200;Laerm;68628;48.714;9.472;2023-09-18T08:37:57;50.95;49.94;54.17;;
79200;Laerm;68628;48.714;9.472;2023-09-18T08:40:23;50.79;49.64;54.77;;
79200;Laerm;68628;48.714;9.472;2023-09-18T08:42:51;51.35;50.21;53.90;;
79200;Laerm;68628;48.714;9.472;2023-09-18T08:45:23;51.22;50.04;53.95;;
79200;Laerm;68628;48.714;9.472;2023-09-18T08:47:51;50.87;49.88;53.21;;
79200;Laerm;68628;48.714;9.472;2023-09-18T08:50:19;50.78;49.88;53.12;;
79200;Laerm;68628;48.714;9.472;2023-09-18T08:52:47;50.78;49.92;54.13;;
79200;Laerm;68628;48.714;9.472;2023-09-18T08:55:13;50.60;49.78;52.37;;
79200;Laerm;68628;48.714;9.472;2023-09-18T08:57:39;50.67;49.76;52.64;;
79200;Laerm;68628;48.714;9.472;2023-09-18T09:00:06;51.24;49.73;54.83;;
79200;Laerm;68628;48.714;9.472;2023-09-18T09:02:33;50.95;49.75;54.09;;
79200;Laerm;68628;48.714;9.472;2023-09-18T09:04:59;51.94;50.22;55.83;;
79200;Laerm;68628;48.714;9.472;2023-09-18T09:07:25;52.53;50.09;56.41;;
79200;Laerm;68628;48.714;9.472;2023-09-18T09:09:51;52.91;50.03;56.74;;
79200;Laerm;68628;48.714;9.472;2023-09-18T09:12:46;52.29;49.99;57.60;;
79200;Laerm;68628;48.714;9.472;2023-09-18T09:15:12;52.41;50.26;55.18;;
79200;Laerm;68628;48.714;9.472;2023-09-18T09:17:38;50.78;49.85;53.47;;
79200;Laerm;68628;48.714;9.472;2023-09-18T09:20:11;52.14;49.79;56.05;;
79200;Laerm;68628;48.714;9.472;2023-09-18T09:22:38;50.67;49.61;53.40;;
79200;Laerm;68628;48.714;9.472;2023-09-18T09:25:21;50.59;49.83;51.86;;
79200;Laerm;68628;48.714;9.472;2023-09-18T09:27:47;50.98;50.01;55.57;;
79200;Laerm;68628;48.714;9.472;2023-09-18T09:30:24;51.17;49.83;55.77;;
79200;Laerm;68628;48.714;9.472;2023-09-18T09:32:52;50.78;49.73;53.34;;
79200;Laerm;68628;48.714;9.472;2023-09-18T09:35:22;51.47;50.02;53.70;;
79200;Laerm;68628;48.714;9.472;2023-09-18T09:37:49;51.83;50.29;54.24;;
79200;Laerm;68628;48.714;9.472;2023-09-18T09:40:19;53.07;49.91;55.29;;
79200;Laerm;68628;48.714;9.472;2023-09-18T09:42:45;51.70;50.07;55.90;;
79200;Laerm;68628;48.714;9.472;2023-09-18T09:45:14;50.87;50.05;54.18;;
79200;Laerm;68628;48.714;9.472;2023-09-18T09:47:43;51.06;49.74;52.43;;
79200;Laerm;68628;48.714;9.472;2023-09-18T09:50:15;50.94;50.03;52.25;;
79200;Laerm;68628;48.714;9.472;2023-09-18T09:52:46;50.85;50.09;51.89;;
79200;Laerm;68628;48.714;9.472;2023-09-18T09:55:21;50.74;50.01;51.73;;
79200;Laerm;68628;48.714;9.472;2023-09-18T09:57:49;50.66;49.89;51.72;;
79200;Laerm;68628;48.714;9.472;2023-09-18T10:00:15;50.66;49.77;51.73;;
79200;Laerm;68628;48.714;9.472;2023-09-18T10:02:56;50.55;49.86;51.45;;
79200;Laerm;68628;48.714;9.472;2023-09-18T10:05:27;50.99;50.00;52.27;;
79200;Laerm;68628;48.714;9.472;2023-09-18T10:07:57;50.85;49.87;52.45;;
79200;Laerm;68628;48.714;9.472;2023-09-18T10:10:31;50.42;49.86;51.14;;
79200;Laerm;68628;48.714;9.472;2023-09-18T10:13:04;50.33;49.65;50.85;;
79200;Laerm;68628;48.714;9.472;2023-09-18T10:15:34;50.33;49.75;51.29;;
79200;Laerm;68628;48.714;9.472;2023-09-18T10:18:07;50.73;49.80;52.42;;
79200;Laerm;68628;48.714;9.472;2023-09-18T10:20:38;50.61;49.80;51.94;;
79200;Laerm;68628;48.714;9.472;2023-09-18T10:23:15;50.54;49.77;51.37;;
79200;Laerm;68628;48.714;9.472;2023-09-18T10:25:53;50.24;49.64;50.79;;
79200;Laerm;68628;48.714;9.472;2023-09-18T10:28:23;50.19;49.59;50.83;;
79200;Laerm;68628;48.714;9.472;2023-09-18T10:30:51;50.39;49.66;51.00;;
79200;Laerm;68628;48.714;9.472;2023-09-18T10:33:17;50.39;49.85;51.12;;
79200;Laerm;68628;48.714;9.472;2023-09-18T10:35:43;50.45;49.77;51.53;;
79200;Laerm;68628;48.714;9.472;2023-09-18T10:38:12;50.29;49.66;50.81;;
79200;Laerm;68628;48.714;9.472;2023-09-18T10:40:40;50.29;49.66;50.89;;
79200;Laerm;68628;48.714;9.472;2023-09-18T10:43:08;50.37;49.74;50.88;;
79200;Laerm;68628;48.714;9.472;2023-09-18T10:45:36;50.36;49.74;50.90;;
79200;Laerm;68628;48.714;9.472;2023-09-18T10:48:02;50.33;49.75;51.73;;
79200;Laerm;68628;48.714;9.472;2023-09-18T10:50:29;50.31;49.79;51.09;;
79200;Laerm;68628;48.714;9.472;2023-09-18T10:52:57;50.45;49.84;51.93;;
79200;Laerm;68628;48.714;9.472;2023-09-18T10:55:24;50.36;49.77;50.92;;
79200;Laerm;68628;48.714;9.472;2023-09-18T10:57:52;50.38;49.82;51.23;;
79200;Laerm;68628;48.714;9.472;2023-09-18T11:00:18;50.44;49.85;51.06;;
79200;Laerm;68628;48.714;9.472;2023-09-18T11:02:50;50.82;49.88;52.51;;
79200;Laerm;68628;48.714;9.472;2023-09-18T11:05:29;51.84;50.22;53.23;;
79200;Laerm;68628;48.714;9.472;2023-09-18T11:08:33;51.48;50.05;52.58;;
79200;Laerm;68628;48.714;9.472;2023-09-18T11:11:07;51.76;50.12;53.43;;
79200;Laerm;68628;48.714;9.472;2023-09-18T11:13:40;50.70;49.91;52.96;;
79200;Laerm;68628;48.714;9.472;2023-09-18T11:16:18;50.55;49.84;52.85;;
79200;Laerm;68628;48.714;9.472;2023-09-18T11:19:10;50.46;49.84;52.45;;
79200;Laerm;68628;48.714;9.472;2023-09-18T11:21:39;50.49;49.79;51.87;;
79200;Laerm;68628;48.714;9.472;2023-09-18T11:24:16;50.50;49.84;51.75;;
79200;Laerm;68628;48.714;9.472;2023-09-18T11:26:45;50.45;49.79;51.18;;
79200;Laerm;68628;48.714;9.472;2023-09-18T11:29:13;50.45;49.83;51.45;;
79200;Laerm;68628;48.714;9.472;2023-09-18T11:34:22;50.48;49.88;51.56;;
79200;Laerm;68628;48.714;9.472;2023-09-18T11:36:49;50.46;49.84;51.17;;
79200;Laerm;68628;48.714;9.472;2023-09-18T11:39:38;50.43;49.84;51.09;;
79200;Laerm;68628;48.714;9.472;2023-09-18T11:42:19;50.37;49.78;51.57;;
79200;Laerm;68628;48.714;9.472;2023-09-18T11:44:48;50.33;49.69;50.93;;
79200;Laerm;68628;48.714;9.472;2023-09-18T11:47:19;50.33;49.83;50.90;;
79200;Laerm;68628;48.714;9.472;2023-09-18T11:49:58;50.36;49.68;51.12;;
79200;Laerm;68628;48.714;9.472;2023-09-18T11:52:29;50.43;49.86;51.10;;
79200;Laerm;68628;48.714;9.472;2023-09-18T11:54:57;50.37;49.72;51.44;;
79200;Laerm;68628;48.714;9.472;2023-09-18T11:57:23;50.35;49.77;51.01;;
79200;Laerm;68628;48.714;9.472;2023-09-18T11:59:49;50.36;49.80;50.96;;
79200;Laerm;68628;48.714;9.472;2023-09-18T12:02:29;50.45;49.65;51.17;;
79200;Laerm;68628;48.714;9.472;2023-09-18T12:05:16;50.51;49.87;51.24;;
79200;Laerm;68628;48.714;9.472;2023-09-18T12:07:44;50.52;49.92;51.08;;
79200;Laerm;68628;48.714;9.472;2023-09-18T12:10:13;50.63;50.02;51.28;;
79200;Laerm;68628;48.714;9.472;2023-09-18T12:12:41;50.85;49.91;53.32;;
79200;Laerm;68628;48.714;9.472;2023-09-18T12:15:11;50.56;49.88;51.18;;
79200;Laerm;68628;48.714;9.472;2023-09-18T12:17:36;50.46;49.75;51.06;;
79200;Laerm;68628;48.714;9.472;2023-09-18T12:20:02;50.52;49.98;51.93;;
79200;Laerm;68628;48.714;9.472;2023-09-18T12:22:30;50.48;49.93;50.99;;
79200;Laerm;68628;48.714;9.472;2023-09-18T12:25:13;53.74;49.88;58.71;;
79200;Laerm;68628;48.714;9.472;2023-09-18T12:27:40;53.01;49.67;58.59;;
79200;Laerm;68628;48.714;9.472;2023-09-18T12:30:07;50.31;49.56;51.07;;
79200;Laerm;68628;48.714;9.472;2023-09-18T12:32:37;50.48;49.85;51.49;;
79200;Laerm;68628;48.714;9.472;2023-09-18T12:35:05;50.55;49.57;52.37;;
79200;Laerm;68628;48.714;9.472;2023-09-18T12:37:39;50.43;49.67;51.07;;
79200;Laerm;68628;48.714;9.472;2023-09-18T12:40:28;53.17;49.80;57.55;;
79200;Laerm;68628;48.714;9.472;2023-09-18T12:42:57;50.84;49.94;52.31;;
79200;Laerm;68628;48.714;9.472;2023-09-18T12:45:27;50.35;49.48;53.10;;
79200;Laerm;68628;48.714;9.472;2023-09-18T12:47:55;50.43;49.81;51.78;;
79200;Laerm;68628;48.714;9.472;2023-09-18T12:50:22;50.63;49.81;52.37;;
79200;Laerm;68628;48.714;9.472;2023-09-18T12:52:47;50.70;49.84;51.85;;
79200;Laerm;68628;48.714;9.472;2023-09-18T12:55:23;50.64;49.80;52.95;;
79200;Laerm;68628;48.714;9.472;2023-09-18T12:57:50;50.82;49.98;52.92;;
79200;Laerm;68628;48.714;9.472;2023-09-18T13:00:18;50.65;50.06;52.29;;
79200;Laerm;68628;48.714;9.472;2023-09-18T13:02:47;50.80;49.99;52.18;;
79200;Laerm;68628;48.714;9.472;2023-09-18T13:05:12;50.52;49.92;51.20;;
79200;Laerm;68628;48.714;9.472;2023-09-18T13:07:44;50.77;50.03;51.86;;
79200;Laerm;68628;48.714;9.472;2023-09-18T13:10:13;50.81;49.99;51.57;;
79200;Laerm;68628;48.714;9.472;2023-09-18T13:12:51;50.97;50.04;52.70;;
79200;Laerm;68628;48.714;9.472;2023-09-18T13:15:29;50.68;49.70;53.35;;
79200;Laerm;68628;48.714;9.472;2023-09-18T13:17:57;50.68;49.76;52.17;;
79200;Laerm;68628;48.714;9.472;2023-09-18T13:20:26;50.46;49.59;52.10;;
79200;Laerm;68628;48.714;9.472;2023-09-18T13:22:55;50.63;49.69;52.14;;
79200;Laerm;68628;48.714;9.472;2023-09-18T13:25:23;50.47;49.78;52.16;;
79200;Laerm;68628;48.714;9.472;2023-09-18T13:27:51;50.20;49.56;51.33;;
79200;Laerm;68628;48.714;9.472;2023-09-18T13:30:17;50.45;49.60;52.14;;
79200;Laerm;68628;48.714;9.472;2023-09-18T13:32:48;50.39;49.71;51.43;;
79200;Laerm;68628;48.714;9.472;2023-09-18T13:35:15;51.21;49.54;52.44;;
79200;Laerm;68628;48.714;9.472;2023-09-18T13:37:41;51.24;49.88;52.55;;
79200;Laerm;68628;48.714;9.472;2023-09-18T13:40:08;50.68;49.89;52.43;;
79200;Laerm;68628;48.714;9.472;2023-09-18T13:42:39;50.57;49.78;52.74;;
79200;Laerm;68628;48.714;9.472;2023-09-18T13:45:06;50.32;49.48;51.90;;
79200;Laerm;68628;48.714;9.472;2023-09-18T13:47:33;50.40;49.63;52.59;;
79200;Laerm;68628;48.714;9.472;2023-09-18T13:50:04;52.29;49.56;58.72;;
79200;Laerm;68628;48.714;9.472;2023-09-18T13:52:35;50.24;49.42;52.57;;
79200;Laerm;68628;48.714;9.472;2023-09-18T13:55:02;50.32;49.47;52.86;;
79200;Laerm;68628;48.714;9.472;2023-09-18T13:57:33;50.51;49.44;52.68;;
79200;Laerm;68628;48.714;9.472;2023-09-18T14:00:01;51.02;49.75;53.97;;
79200;Laerm;68628;48.714;9.472;2023-09-18T14:02:30;51.57;49.75;53.69;;
79200;Laerm;68628;48.714;9.472;2023-09-18T14:04:56;51.58;49.78;56.41;;
79200;Laerm;68628;48.714;9.472;2023-09-18T14:07:22;51.96;50.00;56.26;;
79200;Laerm;68628;48.714;9.472;2023-09-18T14:09:48;51.30;49.89;55.43;;